Time;durP1;ratioP1;P1;durP2;ratioP2;P2;SDS_P1;SDS_P2;PMS_P1;PMS_P2;Temp;Humidity;BMP_temperature;BMP_pressure;BME280_temperature;BME280_humidity;BME280_pressure;Samples;Min_cycle;Max_cycle;Signal;HPM_P1;HPM_P2
2022/08/20 00:00:36;;;;;;;0.00;0.00;;;;;;;19.25;100.00;97738.00;4854884;29;20049;-81
2022/08/20 00:03:07;;;;;;;0.00;0.00;;;;;;;19.31;100.00;97728.50;4858344;29;20105;-82
2022/08/20 00:05:39;;;;;;;0.00;0.00;;;;;;;19.31;100.00;97741.84;4855346;29;20042;-86
2022/08/20 00:08:08;;;;;;;0.00;0.00;;;;;;;19.17;100.00;97771.78;4855374;29;20042;-81
2022/08/20 00:10:38;;;;;;;0.00;0.00;;;;;;;19.04;100.00;97804.19;4857181;29;20049;-82
2022/08/20 00:13:08;;;;;;;0.00;0.00;;;;;;;19.02;100.00;97818.69;4857766;29;20107;-81
2022/08/20 00:15:37;;;;;;;0.00;0.00;;;;;;;18.98;100.00;97828.81;4858425;29;20049;-87
2022/08/20 00:18:06;;;;;;;0.00;0.00;;;;;;;18.81;100.00;97804.84;4857162;29;20065;-90
2022/08/20 00:20:38;;;;;;;0.00;0.00;;;;;;;18.49;100.00;97791.22;4856649;29;20300;-79
2022/08/20 00:23:07;;;;;;;0.00;0.00;;;;;;;18.36;100.00;97761.50;4855392;29;20136;-83
2022/08/20 00:25:34;;;;;;;0.00;0.00;;;;;;;18.29;100.00;97747.94;4854914;29;20419;-87
2022/08/20 00:28:02;;;;;;;0.00;0.00;;;;;;;18.22;100.00;97738.91;4871436;29;20057;-83
2022/08/20 00:30:31;;;;;;;0.00;0.00;;;;;;;18.30;100.00;97730.97;4856651;29;20042;-84
2022/08/20 00:33:01;;;;;;;0.00;0.00;;;;;;;18.39;100.00;97747.88;4852480;29;20048;-79
2022/08/20 00:35:32;;;;;;;0.00;0.00;;;;;;;18.33;100.00;97759.97;4854943;29;20411;-87
2022/08/20 00:38:01;;;;;;;0.00;0.00;;;;;;;18.33;100.00;97764.44;4856266;29;20106;-80
2022/08/20 00:40:33;;;;;;;0.00;0.00;;;;;;;18.38;100.00;97749.69;4857315;29;20114;-79
2022/08/20 00:43:02;;;;;;;0.00;0.00;;;;;;;18.42;100.00;97737.72;4858906;29;20049;-84
2022/08/20 00:45:33;;;;;;;0.00;0.00;;;;;;;18.37;100.00;97734.69;4854362;29;20037;-80
2022/08/20 00:48:00;;;;;;;0.00;0.00;;;;;;;18.27;100.00;97743.75;4858176;29;20048;-79
2022/08/20 00:50:33;;;;;;;0.00;0.00;;;;;;;18.31;100.00;97753.94;4852342;29;20053;-85
2022/08/20 00:53:07;;;;;;;0.00;0.00;;;;;;;18.41;100.00;97757.38;4852122;29;20050;-82
2022/08/20 00:55:35;;;;;;;0.00;0.00;;;;;;;18.31;100.00;97745.97;4859242;29;20042;-80
2022/08/20 00:58:08;;;;;;;0.00;0.00;;;;;;;18.26;100.00;97764.22;4859098;29;20524;-80
2022/08/20 01:00:39;;;;;;;0.00;0.00;;;;;;;18.23;100.00;97753.03;4859111;29;20125;-79
2022/08/20 01:03:08;;;;;;;0.00;0.00;;;;;;;18.16;100.00;97752.00;4859647;29;20106;-79
2022/08/20 01:05:36;;;;;;;0.00;0.00;;;;;;;18.24;100.00;97754.72;4858917;29;20385;-79
2022/08/20 01:08:05;;;;;;;0.00;0.00;;;;;;;18.24;100.00;97739.56;4855276;29;20452;-81
2022/08/20 01:10:36;;;;;;;0.00;0.00;;;;;;;18.15;100.00;97731.66;4857550;29;20045;-79
2022/08/20 01:13:08;;;;;;;0.00;0.00;;;;;;;18.18;100.00;97740.19;4857873;29;20060;-79
2022/08/20 01:15:38;;;;;;;0.00;0.00;;;;;;;18.29;100.00;97741.78;4858401;29;20061;-81
2022/08/20 01:18:09;;;;;;;0.00;0.00;;;;;;;18.36;100.00;97732.19;4857847;29;20069;-82
2022/08/20 01:20:40;;;;;;;0.00;0.00;;;;;;;18.17;100.00;97733.16;4854846;29;20094;-80
2022/08/20 01:23:29;;;;;;;0.00;0.00;;;;;;;18.09;100.00;97732.28;4854472;29;20129;-82
2022/08/20 01:26:03;;;;;;;0.00;0.00;;;;;;;18.08;100.00;97734.09;4853178;29;20121;-79
2022/08/20 01:28:37;;;;;;;0.00;0.00;;;;;;;18.17;100.00;97737.69;4858055;29;20068;-80
2022/08/20 01:31:05;;;;;;;0.00;0.00;;;;;;;18.24;100.00;97742.22;4855078;29;20596;-82
2022/08/20 01:33:33;;;;;;;0.00;0.00;;;;;;;18.24;100.00;97744.91;4858172;29;20093;-80
2022/08/20 01:36:00;;;;;;;0.00;0.00;;;;;;;18.17;100.00;97754.47;4858675;29;20054;-83
2022/08/20 01:38:29;;;;;;;0.00;0.00;;;;;;;18.22;100.00;97754.03;4858554;29;20041;-81
2022/08/20 01:41:20;;;;;;;0.00;0.00;;;;;;;18.25;100.00;97745.75;4857382;29;20045;-80
2022/08/20 01:43:49;;;;;;;0.00;0.00;;;;;;;18.13;100.00;97741.66;4855367;29;20057;-80
2022/08/20 01:46:17;;;;;;;0.00;0.00;;;;;;;18.18;100.00;97745.53;4858876;29;20049;-83
2022/08/20 01:48:45;;;;;;;0.00;0.00;;;;;;;18.18;100.00;97737.53;4854605;29;20065;-79
2022/08/20 01:51:16;;;;;;;0.00;0.00;;;;;;;18.17;100.00;97735.84;4851819;29;20037;-79
2022/08/20 01:53:46;;;;;;;0.00;0.00;;;;;;;18.22;100.00;97725.59;4858816;29;20050;-84
2022/08/20 01:56:18;;;;;;;0.00;0.00;;;;;;;18.21;100.00;97718.59;4858717;29;20042;-79
2022/08/20 01:58:51;;;;;;;0.00;0.00;;;;;;;18.18;100.00;97718.03;4858490;29;20567;-80
2022/08/20 02:01:22;;;;;;;0.00;0.00;;;;;;;18.18;100.00;97716.22;4852229;29;20038;-83
2022/08/20 02:03:50;;;;;;;0.00;0.00;;;;;;;18.19;100.00;97704.59;4854956;29;20046;-84
2022/08/20 02:06:18;;;;;;;0.00;0.00;;;;;;;18.07;100.00;97700.50;4857168;29;20065;-82
2022/08/20 02:08:45;;;;;;;0.00;0.00;;;;;;;18.08;100.00;97695.97;4857618;29;20045;-81
2022/08/20 02:11:14;;;;;;;0.00;0.00;;;;;;;17.97;100.00;97705.03;4855211;29;20090;-79
2022/08/20 02:13:41;;;;;;;0.00;0.00;;;;;;;17.89;100.00;97696.13;4851870;29;20054;-81
2022/08/20 02:16:09;;;;;;;0.00;0.00;;;;;;;17.79;100.00;97704.16;4851373;29;20060;-83
2022/08/20 02:18:36;;;;;;;0.00;0.00;;;;;;;17.82;100.00;97703.06;4855389;29;20102;-79
2022/08/20 02:21:04;;;;;;;0.00;0.00;;;;;;;17.94;100.00;97702.69;4860729;29;20053;-85
2022/08/20 02:23:31;;;;;;;0.00;0.00;;;;;;;17.98;100.00;97703.22;4860585;29;20068;-79
2022/08/20 02:25:59;;;;;;;0.00;0.00;;;;;;;17.98;100.00;97706.72;4861774;29;20446;-81
2022/08/20 02:28:28;;;;;;;0.00;0.00;;;;;;;18.03;100.00;97693.78;4861387;29;20445;-79
2022/08/20 02:30:56;;;;;;;0.00;0.00;;;;;;;18.04;100.00;97705.25;4862359;29;20057;-79
2022/08/20 02:33:24;;;;;;;0.00;0.00;;;;;;;18.01;100.00;97701.09;4861318;29;20042;-83
2022/08/20 02:35:55;;;;;;;0.00;0.00;;;;;;;17.79;100.00;97690.84;4862365;29;20155;-82
2022/08/20 02:38:23;;;;;;;0.00;0.00;;;;;;;17.68;100.00;97699.06;4858685;29;20456;-79
2022/08/20 02:40:50;;;;;;;0.00;0.00;;;;;;;17.69;100.00;97700.72;4861792;29;20058;-84
2022/08/20 02:43:18;;;;;;;0.00;0.00;;;;;;;17.70;100.00;97694.44;4861410;29;20045;-80
2022/08/20 02:45:47;;;;;;;0.00;0.00;;;;;;;17.65;100.00;97694.03;4852894;29;20134;-80
2022/08/20 02:48:21;;;;;;;0.00;0.00;;;;;;;17.61;100.00;97692.66;4858556;29;20132;-81
2022/08/20 02:50:53;;;;;;;0.00;0.00;;;;;;;17.65;100.00;97699.34;4855809;29;20052;-83
2022/08/20 02:53:21;;;;;;;0.00;0.00;;;;;;;17.73;100.00;97695.94;4854390;29;20041;-85
2022/08/20 02:55:48;;;;;;;0.00;0.00;;;;;;;17.77;100.00;97695.50;4861012;29;20061;-84
2022/08/20 02:58:16;;;;;;;0.00;0.00;;;;;;;17.75;100.00;97697.47;4861235;29;20057;-81
2022/08/20 03:00:44;;;;;;;0.00;0.00;;;;;;;17.77;100.00;97690.19;4858259;29;20073;-80
2022/08/20 03:03:14;;;;;;;0.00;0.00;;;;;;;17.73;100.00;97682.66;4860887;29;20044;-79
2022/08/20 03:05:44;;;;;;;0.00;0.00;;;;;;;17.73;100.00;97681.66;4861103;29;20054;-84
2022/08/20 03:08:13;;;;;;;0.00;0.00;;;;;;;17.67;100.00;97676.09;4852619;29;20046;-82
2022/08/20 03:10:43;;;;;;;0.00;0.00;;;;;;;17.55;100.00;97666.69;4851635;29;20049;-80
2022/08/20 03:13:11;;;;;;;0.00;0.00;;;;;;;17.44;100.00;97656.25;4861150;29;20041;-79
2022/08/20 03:15:40;;;;;;;0.00;0.00;;;;;;;17.42;100.00;97651.09;4858354;29;20056;-83
2022/08/20 03:18:08;;;;;;;0.00;0.00;;;;;;;17.42;100.00;97656.41;4850736;29;20071;-79
2022/08/20 03:20:36;;;;;;;0.00;0.00;;;;;;;17.42;100.00;97655.56;4851634;29;20074;-79
2022/08/20 03:23:04;;;;;;;0.00;0.00;;;;;;;17.40;100.00;97653.03;4859401;29;20058;-84
2022/08/20 03:25:32;;;;;;;0.00;0.00;;;;;;;17.40;100.00;97655.69;4860088;29;20134;-81
2022/08/20 03:28:00;;;;;;;0.00;0.00;;;;;;;17.39;100.00;97662.00;4854734;29;20094;-85
2022/08/20 03:30:29;;;;;;;0.00;0.00;;;;;;;17.41;100.00;97653.88;4853341;29;20045;-85
2022/08/20 03:32:57;;;;;;;0.00;0.00;;;;;;;17.41;100.00;97648.56;4857734;29;20491;-79
2022/08/20 03:35:28;;;;;;;0.00;0.00;;;;;;;17.45;100.00;97641.97;4857319;29;20121;-84
2022/08/20 03:37:57;;;;;;;0.00;0.00;;;;;;;17.43;100.00;97638.59;4860064;29;20495;-80
2022/08/20 03:40:27;;;;;;;0.00;0.00;;;;;;;17.41;100.00;97640.59;4855261;29;20045;-81
2022/08/20 03:42:54;;;;;;;0.00;0.00;;;;;;;17.41;100.00;97637.94;4859559;29;20122;-84
2022/08/20 03:45:23;;;;;;;0.00;0.00;;;;;;;17.44;100.00;97637.63;4857372;29;20049;-79
2022/08/20 03:47:52;;;;;;;0.00;0.00;;;;;;;17.45;100.00;97642.81;4853730;29;20124;-81
2022/08/20 03:50:22;;;;;;;0.00;0.00;;;;;;;17.50;100.00;97645.00;4859574;29;20048;-81
2022/08/20 03:52:49;;;;;;;0.00;0.00;;;;;;;17.63;100.00;97653.47;4859555;29;20495;-79
2022/08/20 03:55:18;;;;;;;0.00;0.00;;;;;;;17.71;100.00;97653.53;4859985;29;20114;-83
2022/08/20 03:57:48;;;;;;;0.00;0.00;;;;;;;17.77;100.00;97660.91;4859585;29;20423;-80
2022/08/20 04:00:19;;;;;;;0.00;0.00;;;;;;;17.84;100.00;97663.84;4858464;29;20053;-81
2022/08/20 04:02:46;;;;;;;0.00;0.00;;;;;;;17.87;100.00;97660.88;4857392;29;20101;-80
2022/08/20 04:05:14;;;;;;;0.00;0.00;;;;;;;17.92;100.00;97658.56;4859670;29;20042;-79
2022/08/20 04:07:43;;;;;;;0.00;0.00;;;;;;;17.96;100.00;97663.44;4858897;29;20517;-85
2022/08/20 04:10:13;;;;;;;0.00;0.00;;;;;;;18.12;100.00;97670.72;4859458;29;20567;-80
2022/08/20 04:12:42;;;;;;;0.00;0.00;;;;;;;18.24;100.00;97667.66;4855498;29;20065;-79
2022/08/20 04:15:12;;;;;;;0.00;0.00;;;;;;;18.32;100.00;97669.56;4854355;29;20548;-80
2022/08/20 04:17:41;;;;;;;0.00;0.00;;;;;;;18.45;100.00;97673.50;4851053;29;20046;-86
2022/08/20 04:20:10;;;;;;;0.00;0.00;;;;;;;18.53;100.00;97665.53;4857551;29;20144;-84
2022/08/20 04:22:38;;;;;;;0.00;0.00;;;;;;;18.68;100.00;97672.00;4853962;29;20507;-79
2022/08/20 04:25:08;;;;;;;0.00;0.00;;;;;;;18.84;100.00;97672.13;4854395;29;20141;-80
2022/08/20 04:27:37;;;;;;;0.00;0.00;;;;;;;18.89;100.00;97669.81;4860458;29;20056;-79
2022/08/20 04:30:07;;;;;;;0.00;0.00;;;;;;;18.94;100.00;97683.47;4858733;29;20038;-80
2022/08/20 04:32:35;;;;;;;0.00;0.00;;;;;;;18.95;100.00;97679.84;4856671;29;20406;-85
2022/08/20 04:35:03;;;;;;;0.00;0.00;;;;;;;18.95;100.00;97685.16;4857646;29;20411;-82
2022/08/20 04:37:32;;;;;;;0.00;0.00;;;;;;;19.00;100.00;97680.19;4859438;29;20060;-81
2022/08/20 04:43:03;;;;;;;0.00;0.00;;;;;;;19.26;100.00;97674.78;4828535;29;20102;-80
2022/08/20 04:45:33;;;;;;;0.00;0.00;;;;;;;19.41;100.00;97674.06;4826878;29;20065;-83
2022/08/20 04:48:04;;;;;;;0.00;0.00;;;;;;;19.52;100.00;97665.75;4831167;29;20061;-82
2022/08/20 04:50:34;;;;;;;0.00;0.00;;;;;;;19.65;100.00;97666.13;4832502;29;20050;-81
2022/08/20 04:53:02;;;;;;;0.00;0.00;;;;;;;19.77;100.00;97669.31;4826861;29;20148;-84
2022/08/20 04:55:30;;;;;;;0.00;0.00;;;;;;;19.88;100.00;97664.50;4833364;29;20050;-81
2022/08/20 04:58:03;;;;;;;0.00;0.00;;;;;;;19.85;100.00;97666.63;4832228;29;20270;-80
2022/08/20 05:00:32;;;;;;;0.00;0.00;;;;;;;19.93;100.00;97664.81;4833906;29;20083;-81
2022/08/20 05:03:00;;;;;;;0.00;0.00;;;;;;;20.14;100.00;97653.66;4832935;29;20476;-80
2022/08/20 05:05:29;;;;;;;0.00;0.00;;;;;;;20.35;100.00;97651.34;4832660;29;20495;-83
2022/08/20 05:07:57;;;;;;;0.00;0.00;;;;;;;20.49;100.00;97650.66;4834469;29;20081;-81
2022/08/20 05:10:25;;;;;;;0.00;0.00;;;;;;;20.58;100.00;97634.44;4834477;29;20129;-82
2022/08/20 05:12:52;;;;;;;0.00;0.00;;;;;;;20.73;100.00;97641.78;4828518;29;20050;-83
2022/08/20 05:15:20;;;;;;;0.00;0.00;;;;;;;20.85;100.00;97630.53;4823997;29;20060;-81
2022/08/20 05:17:55;;;;;;;0.00;0.00;;;;;;;20.96;100.00;97634.72;4839987;29;20411;-80
2022/08/20 05:20:23;;;;;;;0.00;0.00;;;;;;;21.02;100.00;97626.00;4854171;29;20144;-81
2022/08/20 05:22:55;;;;;;;0.00;0.00;;;;;;;21.05;100.00;97625.63;4855240;29;20049;-83
2022/08/20 05:25:22;;;;;;;0.00;0.00;;;;;;;21.17;100.00;97624.25;4857162;29;20117;-81
2022/08/20 05:27:50;;;;;;;0.00;0.00;;;;;;;21.32;100.00;97617.97;4858944;29;20133;-83
2022/08/20 05:30:18;;;;;;;0.00;0.00;;;;;;;21.47;100.00;97613.53;4855081;29;20065;-82
2022/08/20 05:32:45;;;;;;;0.00;0.00;;;;;;;21.61;100.00;97617.34;4858932;29;20045;-82
2022/08/20 05:35:14;;;;;;;0.00;0.00;;;;;;;21.74;100.00;97612.25;4858241;29;20128;-86
2022/08/20 05:37:42;;;;;;;0.00;0.00;;;;;;;21.82;100.00;97606.81;4854069;29;20428;-83
2022/08/20 05:40:13;;;;;;;0.00;0.00;;;;;;;21.90;100.00;97606.75;4856210;29;20365;-82
2022/08/20 05:42:40;;;;;;;0.00;0.00;;;;;;;21.98;100.00;97620.94;4856174;29;20056;-83
2022/08/20 05:45:08;;;;;;;0.00;0.00;;;;;;;22.05;100.00;97634.44;4859082;29;20477;-82
2022/08/20 05:47:40;;;;;;;0.00;0.00;;;;;;;22.11;100.00;97647.13;4855294;29;20037;-84
2022/08/20 05:50:09;;;;;;;0.00;0.00;;;;;;;22.05;100.00;97650.50;4858202;29;20041;-87
2022/08/20 05:52:38;;;;;;;0.00;0.00;;;;;;;22.12;100.00;97652.31;4852140;29;20050;-83
2022/08/20 05:55:09;;;;;;;0.00;0.00;;;;;;;22.30;100.00;97654.66;4855547;29;20065;-87
2022/08/20 05:57:36;;;;;;;0.00;0.00;;;;;;;22.45;100.00;97659.09;4858425;29;20227;-82
2022/08/20 06:00:08;;;;;;;0.00;0.00;;;;;;;22.56;100.00;97655.13;4852397;29;20053;-88
2022/08/20 06:05:27;;;;;;;0.00;0.00;;;;;;;22.77;100.00;97656.09;4855886;29;20154;-82
2022/08/20 06:07:56;;;;;;;0.00;0.00;;;;;;;22.70;100.00;97649.81;4857163;29;20093;-85
2022/08/20 06:10:23;;;;;;;0.00;0.00;;;;;;;22.66;100.00;97650.34;4857557;29;20053;-81
2022/08/20 06:12:52;;;;;;;0.00;0.00;;;;;;;22.67;100.00;97655.53;4857429;29;20552;-87
2022/08/20 06:15:19;;;;;;;0.00;0.00;;;;;;;22.84;100.00;97664.25;4852313;29;20144;-85
2022/08/20 06:17:47;;;;;;;0.00;0.00;;;;;;;23.02;100.00;97659.38;4856950;29;20106;-83
2022/08/20 06:20:14;;;;;;;0.00;0.00;;;;;;;23.25;100.00;97660.94;4856034;29;20041;-83
2022/08/20 06:22:42;;;;;;;0.00;0.00;;;;;;;23.53;100.00;97663.78;4852966;29;20085;-85
2022/08/20 06:25:11;;;;;;;0.00;0.00;;;;;;;23.81;100.00;97666.63;4853542;29;20053;-86
2022/08/20 06:27:40;;;;;;;0.00;0.00;;;;;;;23.86;100.00;97667.72;4854715;29;20042;-83
2022/08/20 06:30:10;;;;;;;0.00;0.00;;;;;;;23.86;100.00;97656.13;4855032;29;20060;-87
2022/08/20 06:32:38;;;;;;;0.00;0.00;;;;;;;23.89;100.00;97659.25;4856307;29;20122;-82
2022/08/20 06:35:08;;;;;;;0.00;0.00;;;;;;;24.03;100.00;97663.75;4857651;29;20399;-81
2022/08/20 06:37:38;;;;;;;0.00;0.00;;;;;;;24.14;100.00;97668.59;4857493;29;20096;-86
2022/08/20 06:40:09;;;;;;;0.00;0.00;;;;;;;24.14;100.00;97671.28;4856551;29;20375;-87
2022/08/20 06:42:42;;;;;;;0.00;0.00;;;;;;;24.25;100.00;97670.78;4851419;29;20054;-82
2022/08/20 06:45:10;;;;;;;0.00;0.00;;;;;;;24.31;100.00;97674.59;4853175;29;20094;-82
2022/08/20 06:47:41;;;;;;;0.00;0.00;;;;;;;24.41;100.00;97664.34;4851699;29;20049;-87
2022/08/20 06:50:09;;;;;;;0.00;0.00;;;;;;;24.40;100.00;97674.25;4851457;29;20053;-87
2022/08/20 06:52:38;;;;;;;0.00;0.00;;;;;;;24.40;100.00;97679.63;4854649;29;20538;-82
2022/08/20 06:55:07;;;;;;;0.00;0.00;;;;;;;24.43;100.00;97675.72;4856141;29;20530;-83
2022/08/20 06:57:35;;;;;;;0.00;0.00;;;;;;;24.50;100.00;97679.31;4857650;29;20080;-87
2022/08/20 07:00:06;;;;;;;0.00;0.00;;;;;;;24.57;100.00;97674.81;4850636;29;20044;-83
2022/08/20 07:02:34;;;;;;;0.00;0.00;;;;;;;24.62;100.00;97675.09;4854616;29;20045;-85
2022/08/20 07:05:02;;;;;;;0.00;0.00;;;;;;;24.62;100.00;97678.59;4854802;29;20399;-82
2022/08/20 07:07:29;;;;;;;0.00;0.00;;;;;;;24.63;100.00;97693.72;4856944;29;20085;-87
2022/08/20 07:10:00;;;;;;;0.00;0.00;;;;;;;24.65;100.00;97690.81;4858487;29;20511;-87
2022/08/20 07:12:28;;;;;;;0.00;0.00;;;;;;;24.75;100.00;97697.53;4859149;29;20060;-82
2022/08/20 07:14:55;;;;;;;0.00;0.00;;;;;;;24.86;100.00;97690.78;4859278;29;20102;-91
2022/08/20 07:17:24;;;;;;;0.00;0.00;;;;;;;25.01;100.00;97688.84;4860983;29;20041;-82
2022/08/20 07:19:52;;;;;;;0.00;0.00;;;;;;;25.09;100.00;97669.84;4860273;29;20050;-89
2022/08/20 07:22:19;;;;;;;0.00;0.00;;;;;;;25.20;100.00;97672.81;4858728;29;20069;-89
2022/08/20 07:24:47;;;;;;;0.00;0.00;;;;;;;25.37;100.00;97671.47;4850645;29;20145;-85
2022/08/20 07:27:14;;;;;;;0.00;0.00;;;;;;;25.50;100.00;97660.75;4852892;29;20042;-82
2022/08/20 07:32:35;;;;;;;0.00;0.00;;;;;;;25.61;97.35;97665.59;4867053;29;20083;-85
2022/08/20 07:35:05;;;;;;;0.00;0.00;;;;;;;25.71;95.91;97670.59;4857152;29;20069;-79
2022/08/20 07:37:38;;;;;;;0.00;0.00;;;;;;;25.79;93.18;97667.72;4873395;23;20048;-80
2022/08/20 07:40:06;;;;;;;0.00;0.00;;;;;;;25.79;91.52;97673.94;4892613;23;20097;-79
2022/08/20 07:42:35;;;;;;;0.00;0.00;;;;;;;25.78;92.34;97666.91;4873145;29;20054;-79
2022/08/20 07:45:03;;;;;;;0.00;0.00;;;;;;;25.78;92.00;97674.16;4876758;29;20045;-79
2022/08/20 07:47:34;;;;;;;0.00;0.00;;;;;;;25.71;91.72;97674.13;4860609;29;20460;-79
2022/08/20 07:50:02;;;;;;;0.00;0.00;;;;;;;25.58;92.66;97670.56;4861572;29;20097;-78
2022/08/20 07:52:29;;;;;;;0.00;0.00;;;;;;;25.26;91.15;97677.41;4861553;29;20045;-79
2022/08/20 07:54:57;;;;;;;0.00;0.00;;;;;;;25.02;92.05;97675.19;4862116;29;20054;-80
2022/08/20 07:57:24;;;;;;;0.00;0.00;;;;;;;24.96;93.44;97667.91;4863874;29;20041;-79
2022/08/20 07:59:52;;;;;;;0.00;0.00;;;;;;;24.93;94.24;97670.16;4865543;29;20041;-79
2022/08/20 08:02:19;;;;;;;0.00;0.00;;;;;;;24.90;94.01;97659.75;4860961;29;20067;-80
2022/08/20 08:04:48;;;;;;;0.00;0.00;;;;;;;24.74;94.46;97658.22;4864640;29;20053;-82
2022/08/20 08:07:16;;;;;;;0.00;0.00;;;;;;;24.71;96.00;97655.06;4863742;29;20132;-80
2022/08/20 08:09:45;;;;;;;0.00;0.00;;;;;;;24.78;96.18;97653.25;4859476;29;20124;-80
2022/08/20 08:12:13;;;;;;;0.00;0.00;;;;;;;24.93;93.81;97649.47;4854635;29;20050;-79
2022/08/20 08:14:44;;;;;;;0.00;0.00;;;;;;;25.20;93.79;97651.28;4853351;29;20053;-78
2022/08/20 08:17:12;;;;;;;0.00;0.00;;;;;;;25.37;93.21;97649.09;4850458;29;20511;-77
2022/08/20 08:19:44;;;;;;;0.00;0.00;;;;;;;25.45;91.45;97648.91;4853789;29;20052;-78
2022/08/20 08:22:18;;;;;;;0.00;0.00;;;;;;;25.54;92.03;97647.75;4854863;29;20065;-79
2022/08/20 08:24:46;;;;;;;0.00;0.00;;;;;;;25.51;90.85;97642.72;4857752;29;20045;-78
2022/08/20 08:27:17;;;;;;;0.00;0.00;;;;;;;25.52;90.12;97652.47;4855291;29;20062;-84
2022/08/20 08:29:45;;;;;;;0.00;0.00;;;;;;;25.38;90.08;97645.34;4858852;29;20050;-77
2022/08/20 08:32:13;;;;;;;0.00;0.00;;;;;;;25.29;90.47;97646.56;4855452;29;20042;-82
2022/08/20 08:34:40;;;;;;;0.00;0.00;;;;;;;25.37;90.35;97649.94;4854137;29;20053;-84
2022/08/20 08:37:08;;;;;;;0.00;0.00;;;;;;;25.49;89.93;97645.63;4856716;29;20098;-86
2022/08/20 08:39:37;;;;;;;0.00;0.00;;;;;;;25.72;90.42;97646.13;4854997;29;20049;-83
2022/08/20 08:42:25;;;;;;;0.00;0.00;;;;;;;25.74;87.59;97649.47;4853760;29;20054;-78
2022/08/20 08:44:54;;;;;;;0.00;0.00;;;;;;;25.71;86.84;97649.88;4854237;29;20453;-82
2022/08/20 08:47:30;;;;;;;0.00;0.00;;;;;;;25.68;86.12;97652.13;4853666;29;20053;-84
2022/08/20 08:49:58;;;;;;;0.00;0.00;;;;;;;25.71;86.41;97652.56;4855805;29;20045;-81
2022/08/20 08:52:28;;;;;;;0.00;0.00;;;;;;;25.82;86.03;97660.06;4849135;29;20444;-78
2022/08/20 08:55:00;;;;;;;0.00;0.00;;;;;;;25.85;88.94;97665.06;4856078;29;20085;-80
2022/08/20 08:57:28;;;;;;;0.00;0.00;;;;;;;25.99;88.67;97669.44;4859938;29;20061;-81
2022/08/20 09:00:00;;;;;;;0.00;0.00;;;;;;;26.18;88.16;97667.84;4858438;29;20476;-80
2022/08/20 09:02:30;;;;;;;0.00;0.00;;;;;;;26.13;86.34;97660.38;4860561;29;20519;-78
2022/08/20 09:05:02;;;;;;;0.00;0.00;;;;;;;26.33;86.84;97655.84;4860317;29;20068;-76
2022/08/20 09:07:33;;;;;;;0.00;0.00;;;;;;;26.27;87.95;97661.22;4858962;29;20569;-78
2022/08/20 09:10:02;;;;;;;0.00;0.00;;;;;;;26.27;87.83;97661.22;4860173;29;20075;-76
2022/08/20 09:12:31;;;;;;;0.00;0.00;;;;;;;26.38;86.16;97656.06;4859906;29;20186;-76
2022/08/20 09:14:59;;;;;;;0.00;0.00;;;;;;;26.54;85.27;97669.13;4859903;29;20049;-76
2022/08/20 09:17:26;;;;;;;0.00;0.00;;;;;;;26.62;84.12;97660.00;4855255;29;20050;-80
2022/08/20 09:19:54;;;;;;;0.00;0.00;;;;;;;26.68;82.39;97669.97;4858287;29;20049;-76
2022/08/20 09:22:24;;;;;;;0.00;0.00;;;;;;;26.90;82.72;97667.91;4858202;29;20089;-77
2022/08/20 09:24:52;;;;;;;0.00;0.00;;;;;;;27.21;82.21;97670.75;4858414;29;20076;-77
2022/08/20 09:27:20;;;;;;;0.00;0.00;;;;;;;27.36;80.68;97660.53;4858846;29;20053;-79
2022/08/20 09:29:49;;;;;;;0.00;0.00;;;;;;;27.28;78.82;97664.28;4858586;29;20117;-79
2022/08/20 09:32:19;;;;;;;0.00;0.00;;;;;;;27.31;79.11;97654.97;4858586;29;20049;-77
2022/08/20 09:34:50;;;;;;;0.00;0.00;;;;;;;27.32;78.98;97667.41;4860360;29;20512;-80
2022/08/20 09:37:18;;;;;;;0.00;0.00;;;;;;;27.41;78.27;97658.88;4855448;29;20053;-75
2022/08/20 09:39:45;;;;;;;0.00;0.00;;;;;;;27.57;77.61;97665.69;4857432;29;20049;-75
2022/08/20 09:42:15;;;;;;;0.00;0.00;;;;;;;27.38;77.96;97661.19;4857390;29;20049;-75
2022/08/20 09:44:45;;;;;;;0.00;0.00;;;;;;;27.55;78.43;97665.06;4857992;29;20056;-76
2022/08/20 09:47:12;;;;;;;0.00;0.00;;;;;;;27.77;79.30;97666.41;4858267;29;20053;-76
2022/08/20 09:49:40;;;;;;;0.00;0.00;;;;;;;28.05;79.54;97670.47;4856751;29;20053;-75
2022/08/20 09:52:09;;;;;;;0.00;0.00;;;;;;;28.10;79.02;97667.09;4859373;29;20049;-75
2022/08/20 09:54:38;;;;;;;0.00;0.00;;;;;;;28.00;78.31;97669.47;4859599;29;20109;-75
2022/08/20 09:57:08;;;;;;;0.00;0.00;;;;;;;28.23;78.77;97664.31;4859514;29;20041;-76
2022/08/20 09:59:36;;;;;;;0.00;0.00;;;;;;;28.13;77.21;97667.50;4857767;29;20054;-75
2022/08/20 10:02:05;;;;;;;0.00;0.00;;;;;;;27.85;75.16;97663.47;4856826;29;20053;-79
2022/08/20 10:04:33;;;;;;;0.00;0.00;;;;;;;27.72;74.23;97656.25;4860020;29;20049;-74
2022/08/20 10:07:00;;;;;;;0.00;0.00;;;;;;;27.63;73.05;97649.41;4859765;29;20491;-75
2022/08/20 10:09:27;;;;;;;0.00;0.00;;;;;;;27.59;73.87;97659.00;4860675;29;20045;-74
2022/08/20 10:11:55;;;;;;;0.00;0.00;;;;;;;27.66;74.72;97653.59;4862499;29;20079;-74
2022/08/20 10:14:22;;;;;;;0.00;0.00;;;;;;;27.81;75.11;97659.56;4856692;29;20460;-77
2022/08/20 10:16:55;;;;;;;0.00;0.00;;;;;;;27.89;74.64;97656.63;4858385;29;20042;-79
2022/08/20 10:19:24;;;;;;;0.00;0.00;;;;;;;27.79;75.68;97658.94;4865407;29;20442;-76
2022/08/20 10:21:53;;;;;;;0.00;0.00;;;;;;;27.69;74.10;97655.84;4858945;29;20045;-75
2022/08/20 10:24:20;;;;;;;0.00;0.00;;;;;;;27.43;75.01;97647.84;4856187;29;20490;-75
2022/08/20 10:26:48;;;;;;;0.00;0.00;;;;;;;27.30;77.04;97647.91;4855259;29;20053;-75
2022/08/20 10:29:16;;;;;;;0.00;0.00;;;;;;;27.35;76.17;97645.38;4856888;29;20045;-75
2022/08/20 10:31:44;;;;;;;0.00;0.00;;;;;;;27.20;76.06;97648.31;4857898;29;20422;-79
2022/08/20 10:34:11;;;;;;;0.00;0.00;;;;;;;27.08;76.86;97647.28;4859273;29;20060;-75
2022/08/20 10:36:42;;;;;;;0.00;0.00;;;;;;;27.09;76.97;97643.56;4859466;29;20046;-76
2022/08/20 10:39:09;;;;;;;0.00;0.00;;;;;;;27.14;78.19;97640.22;4858904;29;20058;-77
2022/08/20 10:41:37;;;;;;;0.00;0.00;;;;;;;27.22;78.63;97643.53;4860491;29;20065;-79
2022/08/20 10:44:04;;;;;;;0.00;0.00;;;;;;;27.24;78.24;97633.34;4860815;29;20453;-75
2022/08/20 10:46:32;;;;;;;0.00;0.00;;;;;;;27.19;79.69;97637.72;4856752;29;20081;-79
2022/08/20 10:48:59;;;;;;;0.00;0.00;;;;;;;27.00;81.01;97638.59;4858703;29;20049;-76
2022/08/20 10:51:27;;;;;;;0.00;0.00;;;;;;;26.72;80.54;97638.00;4859679;29;20093;-78
2022/08/20 10:53:55;;;;;;;0.00;0.00;;;;;;;26.54;82.35;97639.44;4859593;29;20053;-76
2022/08/20 10:56:23;;;;;;;0.00;0.00;;;;;;;26.52;82.83;97640.69;4845959;29;20046;-77
2022/08/20 10:58:50;;;;;;;0.00;0.00;;;;;;;26.51;83.37;97639.03;4860136;29;20121;-76
2022/08/20 11:01:17;;;;;;;0.00;0.00;;;;;;;26.30;84.07;97634.69;4860486;29;20041;-78
2022/08/20 11:03:45;;;;;;;0.00;0.00;;;;;;;26.19;85.13;97642.53;4856696;29;20045;-79
2022/08/20 11:06:12;;;;;;;0.00;0.00;;;;;;;26.02;84.54;97638.56;4855005;29;20081;-79
2022/08/20 11:08:40;;;;;;;0.00;0.00;;;;;;;25.80;83.17;97635.16;4860987;29;20041;-77
2022/08/20 11:11:08;;;;;;;0.00;0.00;;;;;;;25.73;83.73;97636.19;4861139;29;20054;-77
2022/08/20 11:13:36;;;;;;;0.00;0.00;;;;;;;25.62;84.54;97634.09;4859385;29;21984;-78
2022/08/20 11:16:05;;;;;;;0.00;0.00;;;;;;;25.53;84.80;97629.91;4860210;29;20046;-78
2022/08/20 11:18:32;;;;;;;0.00;0.00;;;;;;;25.49;85.02;97634.84;4860903;29;20574;-76
2022/08/20 11:21:00;;;;;;;0.00;0.00;;;;;;;25.39;84.58;97625.50;4861103;29;20468;-79
2022/08/20 11:23:28;;;;;;;0.00;0.00;;;;;;;25.33;83.37;97619.03;4858028;29;20052;-78
2022/08/20 11:25:55;;;;;;;0.00;0.00;;;;;;;25.49;83.06;97618.69;4859155;29;20041;-78
2022/08/20 11:28:25;;;;;;;0.00;0.00;;;;;;;25.57;81.77;97615.00;4860858;29;20069;-76
2022/08/20 11:30:53;;;;;;;0.00;0.00;;;;;;;25.65;79.85;97618.34;4860504;29;20041;-78
2022/08/20 11:33:20;;;;;;;0.00;0.00;;;;;;;25.55;78.98;97617.88;4857961;29;20037;-77
2022/08/20 11:35:48;;;;;;;0.00;0.00;;;;;;;25.32;80.53;97621.94;4852273;29;20053;-77
2022/08/20 11:38:15;;;;;;;0.00;0.00;;;;;;;25.17;82.34;97626.63;4859226;29;20564;-79
2022/08/20 11:40:43;;;;;;;0.00;0.00;;;;;;;24.88;81.99;97630.34;4860445;29;20053;-76
2022/08/20 11:43:10;;;;;;;0.00;0.00;;;;;;;24.75;82.57;97624.03;4858909;29;20044;-76
2022/08/20 11:45:39;;;;;;;0.00;0.00;;;;;;;24.60;82.40;97628.69;4860187;29;20050;-78